Time;durP1;ratioP1;P1;durP2;ratioP2;P2;SDS_P1;SDS_P2;PMS_P1;PMS_P2;Temp;Humidity;BMP_temperature;BMP_pressure;BME280_temperature;BME280_humidity;BME280_pressure;Samples;Min_cycle;Max_cycle;Signal;HPM_P1;HPM_P2
2023/12/29 00:00:14;;;;;;;;;;;9.10;90.00;;;;;;5035243;28;19905;-90
2023/12/29 00:02:40;;;;;;;;;;;9.00;90.20;;;;;;5051740;28;19908;-89
2023/12/29 00:05:06;;;;;;;14.10;10.40;;;9.10;90.00;;;;;;5034803;28;19940;-88
2023/12/29 00:07:31;;;;;;;15.63;11.00;;;9.10;90.40;;;;;;5034524;28;20172;-89
2023/12/29 00:09:57;;;;;;;17.53;10.60;;;9.10;90.60;;;;;;5034607;28;20175;-89
2023/12/29 00:12:22;;;;;;;23.53;13.80;;;9.00;90.80;;;;;;5034595;28;25121;-90
2023/12/29 00:14:48;;;;;;;16.87;10.97;;;9.00;91.00;;;;;;5034306;28;20177;-89
2023/12/29 00:17:14;;;;;;;12.60;10.20;;;9.10;90.70;;;;;;5036016;28;20268;-90
2023/12/29 00:19:39;;;;;;;16.63;11.20;;;9.10;90.80;;;;;;5034502;28;20223;-89
2023/12/29 00:22:05;;;;;;;24.93;11.07;;;9.10;90.80;;;;;;5034238;28;20114;-90
2023/12/29 00:24:34;;;;;;;13.00;9.73;;;9.00;90.90;;;;;;5034809;28;20652;-90
2023/12/29 00:26:59;;;;;;;10.70;5.60;;;9.10;90.90;;;;;;5052807;28;20169;-92
2023/12/29 00:29:25;;;;;;;20.43;6.10;;;9.00;91.10;;;;;;5054868;28;20706;-90
2023/12/29 00:31:50;;;;;;;13.50;9.70;;;9.10;90.80;;;;;;5050890;28;20235;-89
2023/12/29 00:34:16;;;;;;;21.23;10.63;;;9.10;90.80;;;;;;5050364;28;20191;-92
2023/12/29 00:36:42;;;;;;;9.93;7.70;;;9.00;90.90;;;;;;5033928;28;20557;-90
2023/12/29 00:39:07;;;;;;;7.47;4.77;;;9.10;90.90;;;;;;5033709;28;20181;-91
2023/12/29 00:41:33;;;;;;;7.67;4.00;;;9.10;91.00;;;;;;5033862;28;20177;-90
2023/12/29 00:43:58;;;;;;;12.20;8.37;;;9.00;91.10;;;;;;5050784;28;20200;-91
2023/12/29 00:46:24;;;;;;;9.13;8.33;;;9.10;91.00;;;;;;5050611;28;20177;-90
2023/12/29 00:48:49;;;;;;;12.27;6.97;;;9.10;90.90;;;;;;5034625;28;20177;-89
2023/12/29 00:51:15;;;;;;;13.03;4.80;;;9.20;90.50;;;;;;5033605;28;20187;-91
2023/12/29 00:53:40;;;;;;;11.27;4.27;;;9.10;91.10;;;;;;5049891;28;20558;-91
2023/12/29 00:56:12;;;;;;;17.80;4.80;;;9.10;91.00;;;;;;5033603;28;20629;-92
2023/12/29 00:58:38;;;;;;;13.90;3.77;;;9.10;91.20;;;;;;5050320;28;20177;-91
2023/12/29 01:01:04;;;;;;;7.43;4.00;;;9.10;91.20;;;;;;5049964;28;20211;-91
2023/12/29 01:03:30;;;;;;;13.20;4.30;;;9.10;91.30;;;;;;5034468;28;20193;-91
2023/12/29 01:05:55;;;;;;;11.50;5.43;;;9.20;91.00;;;;;;5034511;28;20595;-91
2023/12/29 01:08:21;;;;;;;13.67;4.60;;;9.20;91.00;;;;;;5034468;28;20172;-92
2023/12/29 01:10:46;;;;;;;8.07;4.67;;;9.20;90.70;;;;;;5049868;28;20193;-93
2023/12/29 01:13:12;;;;;;;9.03;5.20;;;9.20;90.30;;;;;;5049790;28;20181;-92
2023/12/29 01:15:38;;;;;;;19.53;5.47;;;9.20;90.40;;;;;;5050599;28;20541;-91
2023/12/29 01:18:03;;;;;;;11.00;5.07;;;9.20;90.60;;;;;;5033052;28;20188;-91
2023/12/29 01:20:29;;;;;;;6.93;4.73;;;9.20;90.30;;;;;;5033000;28;20594;-91
2023/12/29 01:22:54;;;;;;;7.20;5.03;;;9.30;90.20;;;;;;5049437;28;20711;-91
2023/12/29 01:25:20;;;;;;;13.83;5.57;;;9.30;90.10;;;;;;5049658;28;20180;-91
2023/12/29 01:27:45;;;;;;;;;;;9.30;90.10;;;;;;5049645;28;20175;-92
2023/12/29 01:30:11;;;;;;;14.27;5.63;;;9.30;90.10;;;;;;5033174;28;20167;-91
2023/12/29 01:32:37;;;;;;;18.73;6.37;;;9.30;89.80;;;;;;5034201;28;20172;-91
2023/12/29 01:35:03;;;;;;;13.47;6.60;;;9.30;90.00;;;;;;5049991;28;20180;-90
2023/12/29 01:37:31;;;;;;;8.37;4.90;;;9.20;90.20;;;;;;5034324;28;20207;-91
2023/12/29 01:39:57;;;;;;;12.10;4.90;;;9.20;90.30;;;;;;5049372;28;20201;-91
2023/12/29 01:42:22;;;;;;;8.15;5.25;;;9.30;90.10;;;;;;5033927;28;20196;-91
2023/12/29 01:44:52;;;;;;;12.77;10.17;;;9.30;90.10;;;;;;5033936;28;20252;-90
2023/12/29 01:47:18;;;;;;;13.97;10.43;;;9.30;90.20;;;;;;5033869;28;20165;-90
2023/12/29 01:49:48;;;;;;;16.50;9.73;;;9.20;90.40;;;;;;5032798;28;20611;-91
2023/12/29 01:52:15;;;;;;;15.07;9.97;;;9.20;90.40;;;;;;5033973;28;20505;-91
2023/12/29 01:54:42;;;;;;;12.20;10.20;;;9.30;90.30;;;;;;5048958;28;20230;-91
2023/12/29 01:57:08;;;;;;;18.73;10.70;;;9.30;89.80;;;;;;5032510;28;20598;-91
2023/12/29 01:59:35;;;;;;;15.37;11.10;;;9.30;89.50;;;;;;5032350;28;20196;-90
2023/12/29 02:02:01;;;;;;;14.53;11.20;;;9.40;88.90;;;;;;5032278;28;20170;-92
2023/12/29 02:04:28;;;;;;;17.10;11.70;;;9.50;88.80;;;;;;5031724;28;20180;-91
2023/12/29 02:06:54;;;;;;;13.83;10.93;;;9.40;89.00;;;;;;5033501;28;20165;-91
2023/12/29 02:09:20;;;;;;;12.55;11.45;;;9.50;88.80;;;;;;5033430;28;20192;-89
2023/12/29 02:11:46;;;;;;;12.43;11.23;;;9.50;88.70;;;;;;5032219;28;19948;-90
2023/12/29 02:14:13;;;;;;;13.00;11.67;;;9.50;88.50;;;;;;5032064;28;20204;-92
2023/12/29 02:17:04;;;;;;;13.23;12.03;;;9.60;88.10;;;;;;5032122;28;20263;-91
2023/12/29 02:19:44;;;;;;;15.07;13.00;;;9.70;87.60;;;;;;5032132;28;20695;-91
2023/12/29 02:22:11;;;;;;;18.60;12.23;;;9.80;87.10;;;;;;5031974;28;20196;-91
2023/12/29 02:24:37;;;;;;;8.13;6.30;;;9.80;87.00;;;;;;5032077;28;20566;-91
2023/12/29 02:27:26;;;;;;;11.67;6.20;;;9.70;87.50;;;;;;5048648;28;20176;-91
2023/12/29 02:30:17;;;;;;;8.87;6.57;;;9.60;87.50;;;;;;5033199;28;20235;-91
2023/12/29 02:32:46;;;;;;;14.73;12.63;;;9.70;87.40;;;;;;5031893;28;20676;-89
2023/12/29 02:35:15;;;;;;;15.30;13.83;;;9.80;87.10;;;;;;5031790;28;20206;-91
2023/12/29 02:37:41;;;;;;;7.10;6.40;;;9.70;87.00;;;;;;5031853;28;20222;-91
2023/12/29 02:40:10;;;;;;;10.80;6.60;;;9.70;86.50;;;;;;5033133;28;20271;-91
2023/12/29 02:42:36;;;;;;;15.73;11.67;;;9.50;87.20;;;;;;5048349;28;20286;-92
2023/12/29 02:45:01;;;;;;;11.67;10.57;;;9.50;88.10;;;;;;5031694;28;20204;-91
2023/12/29 02:47:27;;;;;;;11.80;9.57;;;9.20;89.60;;;;;;5031872;28;20173;-87
2023/12/29 02:49:54;;;;;;;14.13;5.90;;;9.20;90.30;;;;;;5048260;28;20197;-90
2023/12/29 02:52:19;;;;;;;;;;;9.00;90.60;;;;;;5048764;28;20234;-92
2023/12/29 02:54:45;;;;;;;;;;;8.90;91.50;;;;;;5049472;28;19905;-92
2023/12/29 02:57:10;;;;;;;;;;;8.50;90.90;;;;;;5048916;28;19911;-91
2023/12/29 02:59:37;;;;;;;;;;;8.40;90.60;;;;;;5032146;28;19905;-89
2023/12/29 03:02:02;;;;;;;;;;;8.40;89.80;;;;;;5032457;28;20249;-91
2023/12/29 03:04:28;;;;;;;;;;;8.20;89.20;;;;;;5032119;28;19978;-89
2023/12/29 03:06:53;;;;;;;;;;;7.80;91.10;;;;;;5048590;28;19950;-90
2023/12/29 03:09:19;;;;;;;4.10;3.77;;;7.90;91.10;;;;;;5031611;28;20312;-91
2023/12/29 03:11:45;;;;;;;13.43;4.30;;;8.00;91.30;;;;;;5032714;28;20165;-91
2023/12/29 03:14:10;;;;;;;9.63;4.20;;;8.20;91.50;;;;;;5048098;28;20173;-90
2023/12/29 03:16:36;;;;;;;11.97;4.63;;;8.30;91.40;;;;;;5049602;28;20177;-91
2023/12/29 03:19:01;;;;;;;10.00;5.43;;;8.40;90.90;;;;;;5052369;28;20202;-91
2023/12/29 03:21:27;;;;;;;10.90;5.30;;;8.50;90.40;;;;;;5052239;28;20167;-92
2023/12/29 03:23:52;;;;;;;9.70;4.90;;;8.50;90.50;;;;;;5051606;28;20211;-90
2023/12/29 03:26:18;;;;;;;9.70;5.40;;;8.60;90.60;;;;;;5051779;28;20547;-91
2023/12/29 03:28:43;;;;;;;12.83;5.33;;;8.90;89.70;;;;;;5036075;28;20185;-91
2023/12/29 03:31:09;;;;;;;8.63;5.80;;;9.00;89.30;;;;;;5051591;28;20204;-90
2023/12/29 03:33:34;;;;;;;9.93;5.20;;;9.10;88.90;;;;;;5051623;28;20169;-92
2023/12/29 03:36:00;;;;;;;10.10;5.80;;;9.20;88.60;;;;;;5051695;28;20250;-91
2023/12/29 03:38:25;;;;;;;13.60;6.03;;;9.20;88.40;;;;;;5036397;28;20176;-91
2023/12/29 03:40:51;;;;;;;9.57;5.90;;;9.20;88.50;;;;;;5052475;28;20302;-92
2023/12/29 03:43:16;;;;;;;6.43;5.13;;;9.10;88.70;;;;;;5051447;28;20826;-91
2023/12/29 03:45:42;;;;;;;11.73;10.30;;;9.10;88.90;;;;;;5051514;28;20168;-90
2023/12/29 03:48:08;;;;;;;12.07;11.00;;;9.00;89.20;;;;;;5035375;28;20176;-91
2023/12/29 03:50:34;;;;;;;12.50;11.50;;;9.10;88.90;;;;;;5034652;28;20576;-90
2023/12/29 03:53:00;;;;;;;;;;;9.10;89.00;;;;;;5034842;28;20180;-89
2023/12/29 03:55:25;;;;;;;18.40;11.43;;;9.20;88.80;;;;;;5034730;28;20001;-89
2023/12/29 03:57:51;;;;;;;17.33;11.53;;;9.30;88.30;;;;;;5034625;28;20172;-90
2023/12/29 04:00:17;;;;;;;13.20;11.87;;;9.10;88.80;;;;;;5034602;28;20201;-91
2023/12/29 04:02:42;;;;;;;14.43;13.33;;;9.20;87.50;;;;;;5035755;28;20192;-92
2023/12/29 04:05:09;;;;;;;19.17;17.53;;;9.10;85.20;;;;;;5034580;28;20219;-89
2023/12/29 04:07:34;;;;;;;21.00;19.27;;;9.00;83.70;;;;;;5034716;28;20180;-90
2023/12/29 04:10:00;;;;;;;21.47;20.03;;;8.90;82.20;;;;;;5035498;28;20750;-91
2023/12/29 04:12:25;;;;;;;19.13;17.87;;;8.80;81.50;;;;;;5034735;28;20181;-91
2023/12/29 04:14:51;;;;;;;19.53;18.23;;;8.60;83.10;;;;;;5035676;28;20180;-91
2023/12/29 04:17:17;;;;;;;21.33;19.53;;;8.30;83.40;;;;;;5034202;28;20188;-89
2023/12/29 04:19:42;;;;;;;21.93;20.30;;;8.30;82.70;;;;;;5034220;28;20565;-90
2023/12/29 04:22:08;;;;;;;22.23;20.80;;;8.20;82.30;;;;;;5035293;28;20671;-92
2023/12/29 04:24:34;;;;;;;11.17;10.43;;;8.10;83.00;;;;;;5034056;28;20168;-91
2023/12/29 04:27:00;;;;;;;10.83;9.93;;;8.00;82.70;;;;;;5034180;28;20179;-90
2023/12/29 04:29:25;;;;;;;10.20;9.50;;;8.00;83.60;;;;;;5050080;28;20195;-91
2023/12/29 04:31:51;;;;;;;;;;;7.80;84.20;;;;;;5050782;28;20176;-92
2023/12/29 04:34:16;;;;;;;;;;;7.80;84.50;;;;;;5035558;28;20369;-92
2023/12/29 04:36:42;;;;;;;10.25;9.35;;;7.70;84.50;;;;;;5050658;28;19911;-91
2023/12/29 04:39:10;;;;;;;9.17;8.33;;;7.80;84.60;;;;;;5033719;28;20267;-90
2023/12/29 04:41:36;;;;;;;9.60;8.57;;;7.70;85.10;;;;;;5050433;28;20184;-91
2023/12/29 04:44:01;;;;;;;17.63;16.23;;;7.70;85.60;;;;;;5050477;28;20605;-91
2023/12/29 04:46:27;;;;;;;19.50;18.20;;;7.70;85.30;;;;;;5034821;28;20173;-90
2023/12/29 04:48:53;;;;;;;10.60;8.50;;;7.80;85.10;;;;;;5033378;28;20177;-91
2023/12/29 04:51:18;;;;;;;7.70;7.10;;;7.70;85.20;;;;;;5050266;28;20598;-90
2023/12/29 04:53:44;;;;;;;7.33;6.73;;;7.70;85.60;;;;;;5033636;28;20794;-91
2023/12/29 04:56:10;;;;;;;11.90;7.47;;;7.80;85.90;;;;;;5050914;28;20177;-91
2023/12/29 04:58:35;;;;;;;10.50;7.50;;;7.80;86.30;;;;;;5050101;28;20283;-91
2023/12/29 05:01:01;;;;;;;11.33;6.90;;;7.70;86.70;;;;;;5049868;28;20215;-90
2023/12/29 05:03:26;;;;;;;11.43;7.00;;;7.70;87.30;;;;;;5034462;28;20208;-91
2023/12/29 05:05:52;;;;;;;8.83;5.77;;;7.80;87.60;;;;;;5049927;28;20231;-91
2023/12/29 05:08:17;;;;;;;7.83;6.07;;;7.80;87.90;;;;;;5050662;28;20592;-91
2023/12/29 05:10:43;;;;;;;13.13;6.00;;;7.80;87.80;;;;;;5049672;28;20303;-91
2023/12/29 05:13:08;;;;;;;9.13;6.23;;;7.80;88.40;;;;;;5050259;28;20187;-91
2023/12/29 05:15:34;;;;;;;16.73;5.93;;;7.80;88.70;;;;;;5050632;28;20267;-91
2023/12/29 05:18:00;;;;;;;15.87;6.37;;;7.80;88.60;;;;;;5049923;28;20192;-91
2023/12/29 05:20:25;;;;;;;17.17;6.13;;;7.70;88.80;;;;;;5049913;28;20227;-91
2023/12/29 05:22:51;;;;;;;10.87;6.07;;;7.70;88.90;;;;;;5049559;28;20201;-91
2023/12/29 05:25:16;;;;;;;16.33;7.57;;;7.70;88.70;;;;;;5049561;28;20223;-91
2023/12/29 05:27:42;;;;;;;11.47;6.40;;;7.70;88.80;;;;;;5034374;28;20270;-92
2023/12/29 05:30:07;;;;;;;8.03;5.67;;;7.70;88.90;;;;;;5050287;28;20204;-91
2023/12/29 05:32:33;;;;;;;11.90;6.17;;;7.60;89.10;;;;;;5049880;28;20267;-92
2023/12/29 05:34:58;;;;;;;11.83;5.50;;;7.50;89.30;;;;;;5049300;28;20180;-91
2023/12/29 05:37:24;;;;;;;11.47;5.20;;;7.50;89.50;;;;;;5049690;28;20460;-92
2023/12/29 05:39:50;;;;;;;8.20;4.90;;;7.70;89.30;;;;;;5048313;28;20286;-92
2023/12/29 05:42:15;;;;;;;15.90;10.07;;;7.60;89.50;;;;;;5049078;28;20558;-91
2023/12/29 05:44:41;;;;;;;11.63;9.93;;;7.70;89.70;;;;;;5032459;28;20648;-90
2023/12/29 05:47:06;;;;;;;15.13;10.87;;;7.70;89.70;;;;;;5032541;28;20168;-91
2023/12/29 05:49:37;;;;;;;11.33;9.60;;;7.70;89.60;;;;;;5032386;28;20203;-89
2023/12/29 05:52:03;;;;;;;12.70;9.50;;;7.70;89.90;;;;;;5049923;28;20165;-91
2023/12/29 05:54:29;;;;;;;18.63;9.87;;;7.70;89.70;;;;;;5033648;28;20173;-90
2023/12/29 05:56:55;;;;;;;14.40;9.47;;;7.70;89.90;;;;;;5048995;28;20172;-91
2023/12/29 05:59:20;;;;;;;13.80;10.20;;;7.70;90.10;;;;;;5049086;28;20189;-92
2023/12/29 06:01:46;;;;;;;15.17;9.97;;;7.60;90.20;;;;;;5032332;28;20168;-89
2023/12/29 06:04:11;;;;;;;17.60;9.43;;;7.60;90.50;;;;;;5032233;28;20680;-90
2023/12/29 06:06:37;;;;;;;21.40;10.50;;;7.70;90.60;;;;;;5033372;28;20172;-90
2023/12/29 06:09:02;;;;;;;20.50;10.10;;;7.70;90.60;;;;;;5032468;28;20272;-91
2023/12/29 06:11:28;;;;;;;13.17;9.87;;;7.60;90.70;;;;;;5032306;28;20208;-90
2023/12/29 06:13:54;;;;;;;13.90;9.40;;;7.50;90.90;;;;;;5048794;28;20179;-90
2023/12/29 06:16:20;;;;;;;10.97;9.43;;;7.50;91.00;;;;;;5048779;28;20245;-91
2023/12/29 06:18:47;;;;;;;18.17;10.17;;;7.60;90.90;;;;;;5033611;28;20655;-91
2023/12/29 06:21:12;;;;;;;17.30;5.80;;;7.70;90.80;;;;;;5033267;28;20196;-91
2023/12/29 06:23:38;;;;;;;18.03;6.17;;;7.60;90.80;;;;;;5048959;28;20343;-91
2023/12/29 06:26:03;;;;;;;15.87;9.87;;;7.60;90.80;;;;;;5048669;28;20188;-92
2023/12/29 06:28:29;;;;;;;13.93;9.20;;;7.70;90.80;;;;;;5049527;28;20609;-91
2023/12/29 06:30:55;;;;;;;19.43;9.77;;;7.70;90.80;;;;;;5048425;28;20200;-91
2023/12/29 06:33:21;;;;;;;17.43;6.10;;;7.70;91.00;;;;;;5031909;28;20284;-91
2023/12/29 06:35:47;;;;;;;14.60;4.83;;;7.70;91.10;;;;;;5033441;28;20215;-91
2023/12/29 06:38:14;;;;;;;18.73;9.23;;;7.70;91.20;;;;;;5048862;28;20180;-92
2023/12/29 06:40:40;;;;;;;19.23;9.77;;;7.80;91.20;;;;;;5048495;28;20205;-90
2023/12/29 06:43:05;;;;;;;17.30;5.20;;;7.80;91.10;;;;;;5048439;28;20626;-92
2023/12/29 06:45:31;;;;;;;14.73;5.10;;;7.90;91.10;;;;;;5048620;28;20177;-91
2023/12/29 06:47:57;;;;;;;18.27;5.50;;;7.90;91.00;;;;;;5033015;28;20663;-91
2023/12/29 06:50:22;;;;;;;;;;;8.00;90.80;;;;;;5048786;28;20197;-92
2023/12/29 06:52:47;;;;;;;;;;;8.10;90.70;;;;;;5036102;28;19909;-90
2023/12/29 06:55:13;;;;;;;13.13;5.40;;;8.20;90.40;;;;;;5035840;28;20214;-90
2023/12/29 06:57:39;;;;;;;14.90;5.20;;;8.20;90.20;;;;;;5052552;28;20275;-90
2023/12/29 07:00:05;;;;;;;22.53;6.80;;;8.20;90.00;;;;;;5052573;28;20223;-90
2023/12/29 07:02:31;;;;;;;14.77;6.27;;;8.30;89.50;;;;;;5036798;28;20554;-90
2023/12/29 07:04:57;;;;;;;25.00;7.47;;;8.20;89.40;;;;;;5052079;28;20175;-90
2023/12/29 07:07:22;;;;;;;7.50;5.27;;;8.30;89.00;;;;;;5035548;28;20173;-91
2023/12/29 07:09:48;;;;;;;26.15;7.35;;;8.40;88.60;;;;;;5052065;28;20750;-91
2023/12/29 07:12:13;;;;;;;14.97;6.70;;;8.40;88.50;;;;;;5052250;28;20203;-90
2023/12/29 07:14:41;;;;;;;15.17;6.83;;;8.40;88.50;;;;;;5036733;28;20180;-91
2023/12/29 07:17:06;;;;;;;17.13;7.43;;;8.40;88.50;;;;;;5035202;28;20177;-90
2023/12/29 07:19:36;;;;;;;18.43;7.07;;;8.60;87.70;;;;;;5051830;28;20211;-91
2023/12/29 07:22:03;;;;;;;22.57;7.70;;;8.40;88.20;;;;;;5051851;28;20180;-91
2023/12/29 07:24:29;;;;;;;19.90;7.10;;;8.50;88.00;;;;;;5052492;28;20177;-91
2023/12/29 07:26:55;;;;;;;18.83;8.50;;;8.50;88.30;;;;;;5051658;28;20540;-91
2023/12/29 07:29:20;;;;;;;16.30;8.07;;;8.50;88.30;;;;;;5051910;28;20279;-90
2023/12/29 07:31:46;;;;;;;23.00;8.70;;;8.60;88.00;;;;;;5051651;28;20173;-90
2023/12/29 07:34:11;;;;;;;;;;;8.60;88.00;;;;;;5052904;28;20581;-91
2023/12/29 07:36:40;;;;;;;27.40;13.80;;;8.60;87.80;;;;;;5035216;28;19905;-90
2023/12/29 07:39:06;;;;;;;24.77;12.70;;;8.70;87.30;;;;;;5034949;28;20164;-91
2023/12/29 07:41:32;;;;;;;21.70;13.07;;;8.70;87.20;;;;;;5034964;28;20206;-91
2023/12/29 07:43:57;;;;;;;28.60;13.93;;;8.70;87.40;;;;;;5034717;28;20197;-91
2023/12/29 07:46:25;;;;;;;23.20;12.20;;;8.70;87.30;;;;;;5035114;28;20179;-91
2023/12/29 07:48:50;;;;;;;26.70;14.17;;;8.70;87.30;;;;;;5035100;28;20246;-90
2023/12/29 07:51:16;;;;;;;22.53;14.17;;;8.80;86.80;;;;;;5035883;28;20173;-91
2023/12/29 07:53:42;;;;;;;31.55;15.57;;;8.80;86.80;;;;;;5035605;28;21000;-91
2023/12/29 07:56:07;;;;;;;23.57;15.00;;;8.80;86.40;;;;;;5036066;28;20560;-90
2023/12/29 07:58:32;;;;;;;34.30;17.63;;;8.90;86.00;;;;;;5034630;28;20180;-91
2023/12/29 08:00:58;;;;;;;15.57;13.90;;;8.90;85.60;;;;;;5034399;28;20612;-90
2023/12/29 08:03:23;;;;;;;26.73;15.57;;;8.80;86.00;;;;;;5033519;28;20196;-91
2023/12/29 08:05:49;;;;;;;27.10;17.00;;;8.80;85.70;;;;;;5034376;28;20183;-91
2023/12/29 08:08:15;;;;;;;18.97;15.80;;;8.90;85.20;;;;;;5034860;28;20196;-92
2023/12/29 08:10:41;;;;;;;23.40;14.20;;;8.90;85.20;;;;;;5034206;28;20201;-90
2023/12/29 08:13:08;;;;;;;35.80;17.30;;;8.80;85.30;;;;;;5034551;28;25088;-90
2023/12/29 08:15:34;;;;;;;32.03;16.77;;;8.70;85.70;;;;;;5034121;28;20184;-91
2023/12/29 08:18:00;;;;;;;24.63;17.17;;;8.70;85.40;;;;;;5034193;28;20196;-91
2023/12/29 08:20:25;;;;;;;21.80;10.80;;;8.80;85.10;;;;;;5034095;28;20554;-90
2023/12/29 08:22:51;;;;;;;22.83;10.77;;;8.80;84.80;;;;;;5035053;28;20619;-90
2023/12/29 08:25:16;;;;;;;26.53;12.83;;;8.80;85.00;;;;;;5034069;28;20181;-91
2023/12/29 08:27:42;;;;;;;19.83;11.00;;;8.80;84.80;;;;;;5034023;28;20263;-91
2023/12/29 08:30:08;;;;;;;27.37;18.07;;;8.80;85.10;;;;;;5033917;28;20192;-91
2023/12/29 08:32:33;;;;;;;25.10;10.23;;;8.90;84.80;;;;;;5033840;28;20653;-90
2023/12/29 08:34:59;;;;;;;27.23;11.67;;;9.00;84.30;;;;;;5033758;28;20192;-91
2023/12/29 08:37:25;;;;;;;23.50;15.47;;;8.90;84.60;;;;;;5033940;28;20184;-91
2023/12/29 08:39:50;;;;;;;23.57;16.80;;;8.90;84.50;;;;;;5034935;28;20295;-90
2023/12/29 08:42:16;;;;;;;24.80;16.43;;;9.00;83.90;;;;;;5034147;28;20184;-91
2023/12/29 08:44:42;;;;;;;25.77;11.67;;;9.00;83.90;;;;;;5033808;28;20184;-91
2023/12/29 08:47:08;;;;;;;13.27;10.60;;;9.10;83.20;;;;;;5033882;28;20185;-91
2023/12/29 08:49:37;;;;;;;14.13;9.67;;;8.80;82.60;;;;;;5033783;28;20196;-91
2023/12/29 08:52:03;;;;;;;11.13;8.27;;;8.60;84.00;;;;;;5051395;28;20195;-90
2023/12/29 08:54:29;;;;;;;11.27;6.77;;;8.30;85.50;;;;;;5050766;28;20370;-91
2023/12/29 08:56:54;;;;;;;14.53;6.63;;;8.20;86.80;;;;;;5050053;28;20194;-90
2023/12/29 08:59:20;;;;;;;7.87;6.17;;;7.90;88.00;;;;;;5033668;28;20255;-90
2023/12/29 09:01:45;;;;;;;8.10;4.73;;;7.80;88.80;;;;;;5050236;28;20189;-90
2023/12/29 09:04:11;;;;;;;7.67;4.47;;;7.60;89.30;;;;;;5034849;28;20291;-90
2023/12/29 09:06:36;;;;;;;6.73;4.63;;;7.50;89.60;;;;;;5050057;28;20173;-90
2023/12/29 09:09:02;;;;;;;6.47;4.73;;;7.50;89.60;;;;;;5034570;28;20521;-90
2023/12/29 09:11:28;;;;;;;6.07;4.33;;;7.50;89.30;;;;;;5033377;28;20577;-90
2023/12/29 09:13:54;;;;;;;5.80;4.67;;;7.50;89.50;;;;;;5049964;28;20263;-91
2023/12/29 09:16:19;;;;;;;11.60;5.07;;;7.50;89.70;;;;;;5050054;28;20254;-91
2023/12/29 09:18:45;;;;;;;8.60;5.53;;;7.50;89.60;;;;;;5050567;28;20227;-91
2023/12/29 09:21:11;;;;;;;12.03;5.70;;;7.50;89.80;;;;;;5049739;28;20212;-90
2023/12/29 09:23:38;;;;;;;15.87;5.80;;;7.50;89.60;;;;;;5049837;28;20204;-90
2023/12/29 09:26:04;;;;;;;10.77;5.70;;;7.50;89.60;;;;;;5049990;28;20199;-90
2023/12/29 09:28:34;;;;;;;7.80;4.90;;;7.50;89.60;;;;;;5050699;28;20180;-91
2023/12/29 09:31:00;;;;;;;11.77;5.33;;;7.60;89.20;;;;;;5050356;28;20201;-91
2023/12/29 09:33:29;;;;;;;10.10;5.10;;;7.60;89.00;;;;;;5050434;28;20216;-91
2023/12/29 09:35:54;;;;;;;15.53;10.43;;;7.60;89.10;;;;;;5050833;28;20254;-90
2023/12/29 09:38:20;;;;;;;13.10;9.80;;;7.60;89.20;;;;;;5034105;28;20656;-90
2023/12/29 09:40:46;;;;;;;16.60;10.07;;;7.50;89.40;;;;;;5049788;28;20204;-92
2023/12/29 09:43:12;;;;;;;19.83;10.40;;;7.50;89.50;;;;;;5033029;28;20201;-91
2023/12/29 09:45:42;;;;;;;15.63;10.20;;;7.50;89.70;;;;;;5033070;28;20218;-91
2023/12/29 09:48:09;;;;;;;11.70;10.10;;;7.50;89.80;;;;;;5034038;28;20183;-92
2023/12/29 09:50:35;;;;;;;13.17;8.43;;;7.50;89.80;;;;;;5033173;28;20283;-90
2023/12/29 09:53:04;;;;;;;17.83;10.50;;;7.60;89.80;;;;;;5032721;28;20189;-91
2023/12/29 09:55:30;;;;;;;25.40;10.50;;;7.70;89.90;;;;;;5032484;28;20189;-90
2023/12/29 09:57:59;;;;;;;17.05;10.20;;;7.90;89.00;;;;;;5033932;28;20069;-91
2023/12/29 10:00:25;;;;;;;18.30;9.40;;;7.90;88.90;;;;;;5032249;28;20598;-91
2023/12/29 10:02:55;;;;;;;17.80;11.77;;;7.90;88.90;;;;;;5049095;28;20204;-90
2023/12/29 10:05:20;;;;;;;19.57;11.23;;;8.10;88.60;;;;;;5032618;28;20185;-89
2023/12/29 10:07:47;;;;;;;18.15;12.05;;;8.20;88.20;;;;;;5032312;28;20185;-91
2023/12/29 10:10:18;;;;;;;20.43;11.97;;;8.20;88.10;;;;;;5032236;28;20190;-91
2023/12/29 10:12:47;;;;;;;22.03;11.50;;;8.20;88.20;;;;;;5032616;28;20185;-93
2023/12/29 10:15:35;;;;;;;24.63;8.23;;;8.30;88.30;;;;;;5033581;28;20585;-91
2023/12/29 10:18:27;;;;;;;22.83;8.20;;;8.30;87.80;;;;;;5048759;28;20192;-91
2023/12/29 10:21:26;;;;;;;20.27;13.53;;;8.40;87.60;;;;;;5033594;28;20205;-91
2023/12/29 10:24:27;;;;;;;24.10;15.07;;;8.60;87.00;;;;;;5033056;28;20200;-92
2023/12/29 10:26:54;;;;;;;19.70;8.80;;;8.60;87.20;;;;;;4975655;28;20177;-92
2023/12/29 10:29:20;;;;;;;17.27;8.33;;;8.60;87.20;;;;;;5020376;28;20291;-91
2023/12/29 10:31:46;;;;;;;15.97;7.93;;;8.70;87.10;;;;;;5048945;28;20176;-91
2023/12/29 10:34:28;;;;;;;21.80;8.17;;;8.70;87.00;;;;;;5049057;28;20185;-90
2023/12/29 10:36:55;;;;;;;20.30;10.17;;;8.60;87.20;;;;;;5033388;28;20177;-91
2023/12/29 10:39:20;;;;;;;18.20;8.67;;;8.70;86.60;;;;;;5033489;28;20187;-91
2023/12/29 10:41:46;;;;;;;26.25;9.35;;;8.70;86.70;;;;;;5048655;28;20177;-91
2023/12/29 10:44:11;;;;;;;;;;;8.80;86.70;;;;;;5048899;28;19972;-90
2023/12/29 10:46:37;;;;;;;;;;;8.80;86.90;;;;;;5032501;28;20468;-91
2023/12/29 10:49:09;;;;;;;;;;;8.80;86.50;;;;;;5033828;28;19905;-91
2023/12/29 10:51:35;;;;;;;22.13;9.23;;;8.80;86.30;;;;;;5032137;28;19951;-91
2023/12/29 10:54:00;;;;;;;23.23;9.67;;;8.80;86.60;;;;;;5048629;28;20177;-91
2023/12/29 10:56:26;;;;;;;21.50;9.67;;;8.80;86.30;;;;;;5048306;28;20227;-92
2023/12/29 10:59:05;;;;;;;18.37;9.30;;;8.90;86.20;;;;;;5048607;28;20173;-91
2023/12/29 11:01:33;;;;;;;20.80;8.87;;;8.80;86.50;;;;;;5034655;28;20172;-92
2023/12/29 11:04:00;;;;;;;15.63;8.20;;;8.80;87.00;;;;;;5036385;28;20197;-93
2023/12/29 11:06:27;;;;;;;17.67;9.43;;;8.80;86.90;;;;;;5054626;28;20641;-90
2023/12/29 11:08:53;;;;;;;18.40;8.77;;;8.80;87.00;;;;;;5032476;28;20256;-91
2023/12/29 11:11:19;;;;;;;18.53;8.40;;;8.80;87.00;;;;;;5032960;28;20259;-91
2023/12/29 11:13:47;;;;;;;21.60;8.87;;;8.80;87.20;;;;;;5048327;28;20177;-91
2023/12/29 11:16:14;;;;;;;19.25;8.00;;;8.80;87.50;;;;;;5048533;28;20181;-91
2023/12/29 11:18:43;;;;;;;23.97;13.33;;;8.90;87.30;;;;;;5047999;28;20165;-91
2023/12/29 11:21:09;;;;;;;23.67;12.97;;;8.90;87.50;;;;;;5032857;28;20197;-90
2023/12/29 11:23:35;;;;;;;16.37;11.83;;;8.80;87.60;;;;;;5033298;28;20192;-90
2023/12/29 11:26:03;;;;;;;19.73;10.87;;;8.80;87.70;;;;;;5033107;28;20580;-91
2023/12/29 11:28:28;;;;;;;20.20;12.00;;;8.80;87.80;;;;;;5032937;28;20196;-90
2023/12/29 11:30:54;;;;;;;24.20;11.70;;;8.90;87.80;;;;;;5032089;28;20193;-92
2023/12/29 11:33:31;;;;;;;21.90;11.50;;;8.90;88.00;;;;;;5031747;28;20230;-91
2023/12/29 11:36:01;;;;;;;23.83;12.90;;;8.90;87.80;;;;;;5032496;28;20176;-92
2023/12/29 11:38:39;;;;;;;22.77;12.27;;;9.00;87.80;;;;;;5032767;28;20219;-92
2023/12/29 11:41:27;;;;;;;20.90;12.57;;;9.00;87.70;;;;;;5035599;28;20203;-92
2023/12/29 11:44:01;;;;;;;14.30;11.33;;;9.00;87.60;;;;;;5036683;28;20199;-91
2023/12/29 11:46:43;;;;;;;29.50;13.30;;;9.00;87.60;;;;;;5037151;28;20275;-91
2023/12/29 11:49:09;;;;;;;22.27;13.87;;;9.00;87.50;;;;;;5036842;28;20180;-93
2023/12/29 11:51:43;;;;;;;19.67;12.57;;;9.00;87.50;;;;;;5044708;28;20265;-92
2023/12/29 11:54:10;;;;;;;16.27;13.50;;;9.10;86.90;;;;;;5044158;28;20207;-93
2023/12/29 11:56:38;;;;;;;17.00;8.90;;;9.10;86.50;;;;;;5037779;28;20199;-92
2023/12/29 11:59:30;;;;;;;20.67;8.33;;;9.10;87.00;;;;;;5052279;28;20267;-92
2023/12/29 12:01:58;;;;;;;18.87;12.23;;;9.20;87.40;;;;;;5032908;28;20260;-92
2023/12/29 12:04:43;;;;;;;21.97;13.63;;;9.20;87.10;;;;;;5035145;28;20700;-90
2023/12/29 12:07:17;;;;;;;18.97;15.80;;;9.20;86.80;;;;;;5036946;28;20169;-91
2023/12/29 12:09:43;;;;;;;17.03;9.70;;;9.30;86.10;;;;;;5034892;28;20113;-91
2023/12/29 12:12:09;;;;;;;13.83;7.87;;;9.30;86.10;;;;;;5051251;28;20180;-92
2023/12/29 12:14:45;;;;;;;23.47;14.37;;;9.40;86.40;;;;;;5052591;28;20544;-90
2023/12/29 12:17:11;;;;;;;18.77;15.40;;;9.40;86.00;;;;;;5036807;28;20173;-89
2023/12/29 12:19:37;;;;;;;18.10;16.23;;;9.30;86.00;;;;;;5034556;28;20193;-92
2023/12/29 12:22:03;;;;;;;19.30;10.13;;;9.40;85.60;;;;;;5041232;28;20259;-92
2023/12/29 12:24:29;;;;;;;13.63;9.63;;;9.60;84.90;;;;;;5039948;28;20216;-91
2023/12/29 12:26:55;;;;;;;25.90;9.77;;;9.80;84.20;;;;;;5059787;28;20218;-92
2023/12/29 12:29:21;;;;;;;13.93;9.87;;;10.00;84.80;;;;;;5036380;28;20283;-91
2023/12/29 12:31:57;;;;;;;17.17;9.83;;;10.00;84.40;;;;;;5051862;28;20183;-91
2023/12/29 12:34:23;;;;;;;20.60;10.00;;;10.10;84.40;;;;;;5052369;28;20180;-91
2023/12/29 12:36:56;;;;;;;19.83;11.00;;;10.20;84.70;;;;;;5034660;28;20184;-90
2023/12/29 12:39:23;;;;;;;18.83;11.47;;;10.20;84.00;;;;;;5039698;28;20199;-92
2023/12/29 12:41:49;;;;;;;20.73;10.77;;;9.80;84.30;;;;;;5035345;28;20173;-90
2023/12/29 12:44:15;;;;;;;17.30;11.63;;;9.80;84.60;;;;;;5037550;28;20196;-91
2023/12/29 12:46:54;;;;;;;22.40;10.83;;;9.60;84.00;;;;;;5034243;28;20179;-92
2023/12/29 12:49:20;;;;;;;20.47;10.90;;;9.50;84.70;;;;;;5033970;28;20204;-92